Garoga, New York
Current Conditions -  °F | °C
As of 1:35 AM on Tuesday 21 Oct 2014 (Local Time) from KNY0 Reporting Station
Overcast Overcast  
Wind Chill: 43°   Ceiling: 10000
Heat Index: 43°   Visibility: 10mi
Dew Point: 36°   Wind: 3mph
Humidity: 75%   Direction: 60°ENE
Pressure: 29.91"   Gusts: NA
Location:  43.0176°N, 74.3982°W
Report Text: KNY0 210535Z AUTO 06003KT 10SM OVC100 06/02 A2991 RMK AO2 T00630021
Loading
Personal Weather Stations






























Interactive Weather Map
Tropical Storm Tracking
New forecast layout! Learn more

10-Day Weather Forecast

Advertisements
Track Severe Weather on mobile